createdAt,value
2019-06-01T00:03:30.362Z,99.90
2019-06-01T00:08:24.111Z,99.90
2019-06-01T00:13:18.335Z,99.90
2019-06-01T00:18:12.105Z,99.90
2019-06-01T00:23:09.712Z,99.90
2019-06-01T00:28:05.302Z,99.90
2019-06-01T00:32:59.207Z,99.90
2019-06-01T00:37:52.837Z,99.90
2019-06-01T00:42:48.209Z,99.90
2019-06-01T00:47:42.724Z,99.90
2019-06-01T00:52:37.667Z,99.90
2019-06-01T00:57:31.343Z,99.90
2019-06-01T01:02:26.786Z,99.90
2019-06-01T01:07:21.992Z,99.90
2019-06-01T01:12:16.178Z,99.90
2019-06-01T01:17:10.288Z,99.90
2019-06-01T01:22:05.703Z,99.90
2019-06-01T01:26:59.961Z,99.90
2019-06-01T01:31:55.616Z,99.90
2019-06-01T01:36:52.717Z,99.90
2019-06-01T01:41:49.964Z,99.90
2019-06-01T01:46:43.801Z,99.90
2019-06-01T01:51:40.435Z,99.90
2019-06-01T01:56:34.195Z,99.90
2019-06-01T02:01:28.504Z,99.90
2019-06-01T02:06:23.738Z,99.90
2019-06-01T02:11:19.184Z,99.90
2019-06-01T02:16:13.553Z,99.90
2019-06-01T02:21:07.853Z,99.90
2019-06-01T02:26:02.905Z,99.90
2019-06-01T02:30:57.918Z,99.90
2019-06-01T02:35:51.922Z,99.90
2019-06-01T02:40:46.265Z,99.90
2019-06-01T02:45:39.989Z,99.90
2019-06-01T02:50:34.470Z,99.90
2019-06-01T02:55:28.264Z,99.90
2019-06-01T03:00:49.051Z,99.90
2019-06-01T03:05:45.118Z,99.90
2019-06-01T03:10:40.245Z,99.90
2019-06-01T03:15:36.588Z,99.90
2019-06-01T03:20:33.323Z,99.90
2019-06-01T03:25:29.170Z,99.90
2019-06-01T03:30:38.541Z,99.90
2019-06-01T03:35:32.399Z,99.90
2019-06-01T03:40:27.134Z,99.90
2019-06-01T03:45:20.935Z,99.90
2019-06-01T03:50:15.599Z,99.90
2019-06-01T03:55:12.057Z,99.90
2019-06-01T04:00:09.440Z,99.90
2019-06-01T04:05:05.488Z,99.90
2019-06-01T04:10:03.993Z,99.90
2019-06-01T04:14:58.698Z,99.90
2019-06-01T04:19:55.148Z,99.90
2019-06-01T04:24:49.385Z,99.90
2019-06-01T04:29:43.342Z,99.90
2019-06-01T04:34:37.640Z,99.90
2019-06-01T04:39:32.040Z,99.90
2019-06-01T04:44:26.726Z,99.90
2019-06-01T04:49:21.260Z,99.90
2019-06-01T04:54:16.011Z,99.90
2019-06-01T04:59:10.938Z,99.90
2019-06-01T05:04:05.541Z,99.90
2019-06-01T05:09:00.845Z,99.90
2019-06-01T05:13:54.788Z,98.00
2019-06-01T05:18:50.036Z,96.00
2019-06-01T05:23:45.859Z,94.30
2019-06-01T05:28:39.714Z,92.30
2019-06-01T05:33:37.474Z,92.10
2019-06-01T05:38:28.867Z,91.10
2019-06-01T05:43:24.219Z,87.40
2019-06-01T05:48:25.034Z,84.50
2019-06-01T05:53:14.550Z,81.10
2019-06-01T05:58:09.028Z,80.40
2019-06-01T06:03:02.809Z,77.00
2019-06-01T06:07:59.886Z,68.70
2019-06-01T06:12:54.944Z,63.30
2019-06-01T06:17:48.920Z,56.80
2019-06-01T06:22:43.052Z,53.20
2019-06-01T06:27:37.615Z,49.80
2019-06-01T06:32:31.789Z,47.60
2019-06-01T06:37:26.498Z,45.30
2019-06-01T06:42:22.378Z,44.70
2019-06-01T06:47:16.938Z,43.50
2019-06-01T06:52:11.959Z,40.70
2019-06-01T06:57:06.144Z,39.30
2019-06-01T07:01:59.770Z,38.40
2019-06-01T07:11:47.229Z,36.10
2019-06-01T07:16:41.882Z,34.50
2019-06-01T07:21:36.656Z,34.30
2019-06-01T07:26:32.367Z,33.20
2019-06-01T07:31:28.368Z,33.50
2019-06-01T07:36:22.721Z,31.60
2019-06-01T07:41:17.813Z,29.90
2019-06-01T07:46:12.224Z,30.10
2019-06-01T07:51:07.713Z,29.10
2019-06-01T07:56:02.213Z,28.60
2019-06-01T08:00:56.967Z,27.20
2019-06-01T08:05:54.416Z,28.00
2019-06-01T08:10:49.052Z,28.60
2019-06-01T08:15:44.062Z,30.00
2019-06-01T08:20:38.233Z,33.10
2019-06-01T08:25:32.777Z,30.30
2019-06-01T08:30:28.541Z,29.20
2019-06-01T08:35:23.107Z,28.10
2019-06-01T08:40:18.967Z,27.00
2019-06-01T08:45:15.089Z,26.10
2019-06-01T08:50:09.540Z,28.40
2019-06-01T08:55:04.504Z,31.60
2019-06-01T09:00:01.059Z,34.90
2019-06-01T09:04:58.030Z,30.10
2019-06-01T09:09:52.185Z,28.50
2019-06-01T09:14:46.871Z,27.60
2019-06-01T09:19:41.113Z,26.50
2019-06-01T09:24:36.259Z,27.10
2019-06-01T09:29:32.101Z,25.90
2019-06-01T09:34:28.310Z,25.50
2019-06-01T09:39:23.074Z,25.00
2019-06-01T09:44:19.884Z,24.10
2019-06-01T09:49:14.776Z,24.90
2019-06-01T09:54:09.788Z,24.60
2019-06-01T09:59:04.029Z,24.80
2019-06-01T10:03:58.120Z,25.20
2019-06-01T10:13:46.171Z,23.50
2019-06-01T10:18:42.964Z,23.40
2019-06-01T10:23:38.342Z,23.40
2019-06-01T10:28:33.507Z,23.80
2019-06-01T10:33:28.480Z,24.20
2019-06-01T10:38:23.135Z,24.10
2019-06-01T10:43:17.603Z,23.70
2019-06-01T10:48:13.672Z,23.80
2019-06-01T10:53:09.129Z,24.70
2019-06-01T10:58:04.686Z,26.00
2019-06-01T11:02:59.144Z,26.50
2019-06-01T11:07:53.333Z,27.20
2019-06-01T11:12:49.666Z,29.30
2019-06-01T11:17:43.282Z,32.90
2019-06-01T11:22:37.680Z,35.60
2019-06-01T11:27:33.709Z,37.50
2019-06-01T11:32:28.316Z,37.50
2019-06-01T11:37:22.922Z,38.90
2019-06-01T11:42:20.090Z,39.70
2019-06-01T11:47:14.457Z,40.00
2019-06-01T11:52:10.531Z,38.90
2019-06-01T11:57:04.560Z,40.20
2019-06-01T12:01:59.132Z,40.40
2019-06-01T12:06:53.077Z,42.30
2019-06-01T12:11:47.104Z,42.50
2019-06-01T12:16:42.538Z,43.20
2019-06-01T12:21:37.066Z,44.90
2019-06-01T12:26:31.047Z,43.70
2019-06-01T12:31:25.349Z,44.90
2019-06-01T12:36:19.192Z,45.50
2019-06-01T12:41:12.966Z,44.60
2019-06-01T12:46:07.941Z,46.30
2019-06-01T12:51:02.463Z,47.80
2019-06-01T12:55:56.191Z,46.70
2019-06-01T13:00:50.156Z,48.00
2019-06-01T13:05:45.464Z,48.00
2019-06-01T13:10:41.053Z,49.70
2019-06-01T13:15:35.121Z,50.20
2019-06-01T13:20:29.147Z,49.40
2019-06-01T13:25:22.960Z,51.80
2019-06-01T13:30:20.162Z,50.90
2019-06-01T13:35:16.302Z,52.90
2019-06-01T13:40:10.671Z,52.50
2019-06-01T13:45:07.844Z,53.50
2019-06-01T13:50:06.519Z,54.50
2019-06-01T13:54:59.520Z,54.20
2019-06-01T13:59:55.041Z,54.30
2019-06-01T14:04:49.824Z,54.60
2019-06-01T14:09:45.195Z,53.30
2019-06-01T14:14:39.236Z,54.60
2019-06-01T14:19:33.761Z,54.10
2019-06-01T14:24:27.754Z,55.30
2019-06-01T14:29:22.056Z,54.60
2019-06-01T14:34:16.661Z,56.20
2019-06-01T14:39:11.217Z,56.40
2019-06-01T14:44:05.617Z,55.60
2019-06-01T14:49:00.177Z,57.10
2019-06-01T14:53:57.960Z,55.10
2019-06-01T14:58:51.990Z,54.80
2019-06-01T15:03:46.046Z,55.90
2019-06-01T15:08:40.347Z,56.00
2019-06-01T15:13:34.329Z,56.10
2019-06-01T15:18:28.484Z,56.60
2019-06-01T15:23:22.863Z,56.70
2019-06-01T15:28:17.037Z,57.00
2019-06-01T15:33:13.225Z,56.30
2019-06-01T15:38:07.327Z,55.00
2019-06-01T15:43:01.634Z,56.50
2019-06-01T15:47:57.840Z,56.60
2019-06-01T15:52:53.014Z,57.80
2019-06-01T15:57:48.467Z,56.90
2019-06-01T16:02:43.696Z,56.60
2019-06-01T16:07:38.961Z,57.60
2019-06-01T16:12:33.112Z,56.60
2019-06-01T16:17:27.823Z,55.60
2019-06-01T16:22:23.398Z,57.00
2019-06-01T16:27:18.644Z,58.10
2019-06-01T16:32:12.452Z,59.20
2019-06-01T16:37:07.136Z,59.50
2019-06-01T16:42:03.879Z,60.60
2019-06-01T16:47:02.733Z,60.70
2019-06-01T16:51:59.092Z,60.50
2019-06-01T16:56:54.410Z,60.30
2019-06-01T17:01:49.094Z,59.90
2019-06-01T17:06:45.660Z,61.40
2019-06-01T17:11:40.068Z,64.20
2019-06-01T17:16:37.168Z,66.10
2019-06-01T17:21:32.246Z,64.50
2019-06-01T17:26:26.868Z,66.40
2019-06-01T17:31:21.175Z,64.40
2019-06-01T17:36:15.420Z,67.00
2019-06-01T17:41:09.999Z,67.60
2019-06-01T17:46:05.274Z,68.50
2019-06-01T17:51:00.526Z,70.40
2019-06-01T17:55:55.255Z,72.80
2019-06-01T18:00:50.009Z,72.70
2019-06-01T18:05:44.231Z,72.90
2019-06-01T18:10:52.554Z,74.00
2019-06-01T18:15:35.998Z,74.70
2019-06-01T18:20:31.874Z,76.80
2019-06-01T18:25:27.459Z,77.20
2019-06-01T18:30:23.057Z,78.10
2019-06-01T18:35:19.756Z,82.40
2019-06-01T18:40:13.999Z,83.70
2019-06-01T18:45:09.758Z,86.20
2019-06-01T18:50:05.793Z,90.00
2019-06-01T18:55:08.575Z,91.50
2019-06-01T19:00:12.005Z,92.60
2019-06-01T19:05:07.200Z,93.50
2019-06-01T19:10:02.227Z,93.90
2019-06-01T19:14:57.190Z,95.10
2019-06-01T19:19:53.281Z,96.20
2019-06-01T19:24:48.304Z,95.50
2019-06-01T19:29:43.813Z,96.50
2019-06-01T19:34:38.463Z,98.30
2019-06-01T19:39:33.306Z,99.00
2019-06-01T19:44:27.505Z,99.40
2019-06-01T19:49:22.542Z,99.90
2019-06-01T19:54:16.977Z,99.90
2019-06-01T19:59:11.770Z,99.90
2019-06-01T20:04:05.883Z,99.90
2019-06-01T20:09:00.737Z,99.90
2019-06-01T20:13:55.488Z,99.90
2019-06-01T20:18:50.371Z,99.90
2019-06-01T20:23:45.620Z,99.90
2019-06-01T20:28:39.640Z,99.90
2019-06-01T20:33:33.323Z,99.90
2019-06-01T20:38:27.259Z,99.90
2019-06-01T20:43:23.008Z,99.90
2019-06-01T20:48:19.229Z,99.90
2019-06-01T20:53:16.815Z,99.90
2019-06-01T20:58:13.361Z,99.90
2019-06-01T21:03:08.279Z,99.90
2019-06-01T21:08:02.164Z,99.90
2019-06-01T21:12:56.931Z,99.90
2019-06-01T21:17:51.151Z,99.90
2019-06-01T21:22:45.700Z,99.90
2019-06-01T21:27:39.978Z,99.90
2019-06-01T21:32:34.615Z,99.90
2019-06-01T21:37:29.516Z,99.90
2019-06-01T21:42:24.286Z,99.90
2019-06-01T21:47:19.593Z,99.90
2019-06-01T21:52:13.591Z,99.90
2019-06-01T21:57:09.516Z,99.90
2019-06-01T22:02:03.330Z,99.90
2019-06-01T22:06:57.319Z,99.90
2019-06-01T22:11:51.093Z,99.90
2019-06-01T22:16:45.438Z,99.90
2019-06-01T22:21:40.472Z,99.90
2019-06-01T22:26:35.672Z,99.90
2019-06-01T22:31:30.076Z,99.90
2019-06-01T22:36:25.163Z,99.90
2019-06-01T22:41:19.879Z,99.90
2019-06-01T22:46:16.047Z,99.90
2019-06-01T22:51:10.248Z,99.90
2019-06-01T22:56:05.976Z,99.90
2019-06-01T23:01:00.499Z,99.90
2019-06-01T23:05:56.441Z,99.90
2019-06-01T23:10:51.754Z,99.90
2019-06-01T23:15:45.815Z,99.90
2019-06-01T23:20:41.510Z,99.90
2019-06-01T23:25:35.899Z,99.90
2019-06-01T23:30:32.333Z,99.90
2019-06-01T23:35:28.583Z,99.90
2019-06-01T23:40:22.538Z,99.90
2019-06-01T23:45:17.950Z,99.90
2019-06-01T23:50:13.045Z,99.90
2019-06-01T23:55:07.889Z,99.90
